sensor_id;sensor_type;location;lat;lon;timestamp;temperature;humidity
9723;DHT22;4900;49.306;8.500;2024-02-26T00:02:24;9.41;63.47
9723;DHT22;4900;49.306;8.500;2024-02-26T00:04:49;9.38;63.62
9723;DHT22;4900;49.306;8.500;2024-02-26T00:07:15;9.39;63.54
9723;DHT22;4900;49.306;8.500;2024-02-26T00:09:41;9.38;63.59
9723;DHT22;4900;49.306;8.500;2024-02-26T00:12:06;9.39;63.54
9723;DHT22;4900;49.306;8.500;2024-02-26T00:14:32;9.35;63.63
9723;DHT22;4900;49.306;8.500;2024-02-26T00:16:57;9.36;63.59
9723;DHT22;4900;49.306;8.500;2024-02-26T00:19:23;9.38;63.63
9723;DHT22;4900;49.306;8.500;2024-02-26T00:21:48;9.35;63.62
9723;DHT22;4900;49.306;8.500;2024-02-26T00:24:13;9.36;63.58
9723;DHT22;4900;49.306;8.500;2024-02-26T00:26:39;9.36;63.56
9723;DHT22;4900;49.306;8.500;2024-02-26T00:29:04;9.39;63.59
9723;DHT22;4900;49.306;8.500;2024-02-26T00:31:30;9.35;63.76
9723;DHT22;4900;49.306;8.500;2024-02-26T00:33:55;9.34;63.71
9723;DHT22;4900;49.306;8.500;2024-02-26T00:36:21;9.36;63.71
9723;DHT22;4900;49.306;8.500;2024-02-26T00:38:46;9.36;63.76
9723;DHT22;4900;49.306;8.500;2024-02-26T00:41:16;9.38;63.67
9723;DHT22;4900;49.306;8.500;2024-02-26T00:43:42;9.35;63.78
9723;DHT22;4900;49.306;8.500;2024-02-26T00:46:07;9.35;63.69
9723;DHT22;4900;49.306;8.500;2024-02-26T00:48:33;9.35;63.67
9723;DHT22;4900;49.306;8.500;2024-02-26T00:50:58;9.38;63.71
9723;DHT22;4900;49.306;8.500;2024-02-26T00:53:24;9.34;63.77
9723;DHT22;4900;49.306;8.500;2024-02-26T00:55:50;9.39;63.82
9723;DHT22;4900;49.306;8.500;2024-02-26T00:58:16;9.35;63.81
9723;DHT22;4900;49.306;8.500;2024-02-26T01:00:41;9.38;63.85
9723;DHT22;4900;49.306;8.500;2024-02-26T01:03:07;9.36;63.93
9723;DHT22;4900;49.306;8.500;2024-02-26T01:05:32;9.34;64.01
9723;DHT22;4900;49.306;8.500;2024-02-26T01:07:58;9.36;63.99
9723;DHT22;4900;49.306;8.500;2024-02-26T01:10:24;9.39;63.95
9723;DHT22;4900;49.306;8.500;2024-02-26T01:12:49;9.39;63.92
9723;DHT22;4900;49.306;8.500;2024-02-26T01:15:14;9.36;63.94
9723;DHT22;4900;49.306;8.500;2024-02-26T01:17:40;9.36;63.97
9723;DHT22;4900;49.306;8.500;2024-02-26T01:20:06;9.34;64.07
9723;DHT22;4900;49.306;8.500;2024-02-26T01:22:31;9.35;64.03
9723;DHT22;4900;49.306;8.500;2024-02-26T01:24:57;9.35;64.10
9723;DHT22;4900;49.306;8.500;2024-02-26T01:27:22;9.36;64.02
9723;DHT22;4900;49.306;8.500;2024-02-26T01:29:52;9.38;64.02
9723;DHT22;4900;49.306;8.500;2024-02-26T01:32:17;9.36;64.09
9723;DHT22;4900;49.306;8.500;2024-02-26T01:34:43;9.36;64.09
9723;DHT22;4900;49.306;8.500;2024-02-26T01:37:08;9.35;64.23
9723;DHT22;4900;49.306;8.500;2024-02-26T01:39:33;9.32;64.29
9723;DHT22;4900;49.306;8.500;2024-02-26T01:41:59;9.34;64.63
9723;DHT22;4900;49.306;8.500;2024-02-26T01:44:26;9.31;64.93
9723;DHT22;4900;49.306;8.500;2024-02-26T01:46:51;9.32;65.21
9723;DHT22;4900;49.306;8.500;2024-02-26T01:49:18;9.25;65.62
9723;DHT22;4900;49.306;8.500;2024-02-26T01:51:45;9.28;65.81
9723;DHT22;4900;49.306;8.500;2024-02-26T01:54:10;9.24;66.09
9723;DHT22;4900;49.306;8.500;2024-02-26T01:56:37;9.23;66.29
9723;DHT22;4900;49.306;8.500;2024-02-26T01:59:03;9.18;66.72
9723;DHT22;4900;49.306;8.500;2024-02-26T02:01:31;9.17;67.15
9723;DHT22;4900;49.306;8.500;2024-02-26T02:03:59;9.18;67.38
9723;DHT22;4900;49.306;8.500;2024-02-26T02:06:25;9.17;67.55
9723;DHT22;4900;49.306;8.500;2024-02-26T02:08:52;9.16;67.79
9723;DHT22;4900;49.306;8.500;2024-02-26T02:11:17;9.17;68.11
9723;DHT22;4900;49.306;8.500;2024-02-26T02:13:43;9.14;68.15
9723;DHT22;4900;49.306;8.500;2024-02-26T02:16:08;9.10;68.47
9723;DHT22;4900;49.306;8.500;2024-02-26T02:18:34;9.11;68.70
9723;DHT22;4900;49.306;8.500;2024-02-26T02:21:02;9.11;68.94
9723;DHT22;4900;49.306;8.500;2024-02-26T02:23:28;9.06;69.35
9723;DHT22;4900;49.306;8.500;2024-02-26T02:25:54;9.04;69.65
9723;DHT22;4900;49.306;8.500;2024-02-26T02:28:23;9.08;69.62
9723;DHT22;4900;49.306;8.500;2024-02-26T02:30:50;9.13;69.73
9723;DHT22;4900;49.306;8.500;2024-02-26T02:33:15;9.14;69.91
9723;DHT22;4900;49.306;8.500;2024-02-26T02:35:41;9.13;70.10
9723;DHT22;4900;49.306;8.500;2024-02-26T02:38:07;9.14;70.30
9723;DHT22;4900;49.306;8.500;2024-02-26T02:40:32;9.17;70.39
9723;DHT22;4900;49.306;8.500;2024-02-26T02:42:58;9.21;70.50
9723;DHT22;4900;49.306;8.500;2024-02-26T02:45:23;9.18;70.57
9723;DHT22;4900;49.306;8.500;2024-02-26T02:47:49;9.23;70.67
9723;DHT22;4900;49.306;8.500;2024-02-26T02:50:14;9.24;70.56
9723;DHT22;4900;49.306;8.500;2024-02-26T02:52:40;9.25;70.55
9723;DHT22;4900;49.306;8.500;2024-02-26T02:55:05;9.23;70.73
9723;DHT22;4900;49.306;8.500;2024-02-26T02:57:31;9.25;70.88
9723;DHT22;4900;49.306;8.500;2024-02-26T02:59:57;9.25;70.95
9723;DHT22;4900;49.306;8.500;2024-02-26T03:02:22;9.23;71.06
9723;DHT22;4900;49.306;8.500;2024-02-26T03:04:50;9.23;71.17
9723;DHT22;4900;49.306;8.500;2024-02-26T03:07:15;9.23;71.41
9723;DHT22;4900;49.306;8.500;2024-02-26T03:09:41;9.24;71.42
9723;DHT22;4900;49.306;8.500;2024-02-26T03:12:06;9.23;71.55
9723;DHT22;4900;49.306;8.500;2024-02-26T03:14:32;9.24;71.83
9723;DHT22;4900;49.306;8.500;2024-02-26T03:16:57;9.21;71.98
9723;DHT22;4900;49.306;8.500;2024-02-26T03:19:22;9.21;72.30
9723;DHT22;4900;49.306;8.500;2024-02-26T03:21:48;9.17;72.41
9723;DHT22;4900;49.306;8.500;2024-02-26T03:24:16;9.14;72.87
9723;DHT22;4900;49.306;8.500;2024-02-26T03:26:42;9.14;72.92
9723;DHT22;4900;49.306;8.500;2024-02-26T03:29:07;9.13;73.02
9723;DHT22;4900;49.306;8.500;2024-02-26T03:31:33;9.16;72.93
9723;DHT22;4900;49.306;8.500;2024-02-26T03:33:58;9.14;72.99
9723;DHT22;4900;49.306;8.500;2024-02-26T03:36:23;9.14;73.03
9723;DHT22;4900;49.306;8.500;2024-02-26T03:38:49;9.17;72.90
9723;DHT22;4900;49.306;8.500;2024-02-26T03:41:14;9.18;72.73
9723;DHT22;4900;49.306;8.500;2024-02-26T03:43:40;9.14;72.72
9723;DHT22;4900;49.306;8.500;2024-02-26T03:46:08;9.13;72.77
9723;DHT22;4900;49.306;8.500;2024-02-26T03:48:42;9.14;72.65
9723;DHT22;4900;49.306;8.500;2024-02-26T03:51:09;9.14;72.74
9723;DHT22;4900;49.306;8.500;2024-02-26T03:53:35;9.14;72.81
9723;DHT22;4900;49.306;8.500;2024-02-26T03:56:05;9.10;72.85
9723;DHT22;4900;49.306;8.500;2024-02-26T03:58:31;9.07;73.05
9723;DHT22;4900;49.306;8.500;2024-02-26T04:00:56;9.08;73.09
9723;DHT22;4900;49.306;8.500;2024-02-26T04:03:24;9.03;73.42
9723;DHT22;4900;49.306;8.500;2024-02-26T04:05:49;9.04;73.37
9723;DHT22;4900;49.306;8.500;2024-02-26T04:08:16;9.03;73.42
9723;DHT22;4900;49.306;8.500;2024-02-26T04:10:42;9.00;73.54
9723;DHT22;4900;49.306;8.500;2024-02-26T04:13:08;8.99;73.61
9723;DHT22;4900;49.306;8.500;2024-02-26T04:15:33;9.01;73.80
9723;DHT22;4900;49.306;8.500;2024-02-26T04:17:59;9.00;73.83
9723;DHT22;4900;49.306;8.500;2024-02-26T04:20:24;8.99;73.99
9723;DHT22;4900;49.306;8.500;2024-02-26T04:22:50;9.00;74.11
9723;DHT22;4900;49.306;8.500;2024-02-26T04:25:15;8.95;74.32
9723;DHT22;4900;49.306;8.500;2024-02-26T04:27:41;8.97;74.33
9723;DHT22;4900;49.306;8.500;2024-02-26T04:30:07;8.99;74.47
9723;DHT22;4900;49.306;8.500;2024-02-26T04:32:33;8.99;74.62
9723;DHT22;4900;49.306;8.500;2024-02-26T04:35:00;8.93;74.74
9723;DHT22;4900;49.306;8.500;2024-02-26T04:37:25;8.97;74.80
9723;DHT22;4900;49.306;8.500;2024-02-26T04:39:58;8.97;74.95
9723;DHT22;4900;49.306;8.500;2024-02-26T04:42:24;8.92;75.12
9723;DHT22;4900;49.306;8.500;2024-02-26T04:44:49;8.93;75.06
9723;DHT22;4900;49.306;8.500;2024-02-26T04:47:16;8.93;75.13
9723;DHT22;4900;49.306;8.500;2024-02-26T04:49:42;8.92;75.08
9723;DHT22;4900;49.306;8.500;2024-02-26T04:52:08;8.93;75.13
9723;DHT22;4900;49.306;8.500;2024-02-26T04:54:33;8.95;75.05
9723;DHT22;4900;49.306;8.500;2024-02-26T04:56:58;8.93;74.96
9723;DHT22;4900;49.306;8.500;2024-02-26T04:59:24;8.97;75.06
9723;DHT22;4900;49.306;8.500;2024-02-26T05:01:49;8.96;74.99
9723;DHT22;4900;49.306;8.500;2024-02-26T05:04:17;8.95;75.08
9723;DHT22;4900;49.306;8.500;2024-02-26T05:06:43;8.93;75.23
9723;DHT22;4900;49.306;8.500;2024-02-26T05:09:08;8.96;75.34
9723;DHT22;4900;49.306;8.500;2024-02-26T05:11:34;8.92;75.51
9723;DHT22;4900;49.306;8.500;2024-02-26T05:14:00;8.93;75.47
9723;DHT22;4900;49.306;8.500;2024-02-26T05:16:26;8.96;75.49
9723;DHT22;4900;49.306;8.500;2024-02-26T05:18:53;8.89;75.67
9723;DHT22;4900;49.306;8.500;2024-02-26T05:21:18;8.88;75.86
9723;DHT22;4900;49.306;8.500;2024-02-26T05:23:44;8.88;75.75
9723;DHT22;4900;49.306;8.500;2024-02-26T05:26:10;8.92;75.82
9723;DHT22;4900;49.306;8.500;2024-02-26T05:28:36;8.88;75.91
9723;DHT22;4900;49.306;8.500;2024-02-26T05:31:04;8.92;75.93
9723;DHT22;4900;49.306;8.500;2024-02-26T05:33:30;8.90;76.00
9723;DHT22;4900;49.306;8.500;2024-02-26T05:35:55;8.93;75.80
9723;DHT22;4900;49.306;8.500;2024-02-26T05:38:20;8.92;75.67
9723;DHT22;4900;49.306;8.500;2024-02-26T05:40:46;8.90;75.75
9723;DHT22;4900;49.306;8.500;2024-02-26T05:43:11;8.92;75.64
9723;DHT22;4900;49.306;8.500;2024-02-26T05:45:37;8.92;75.71
9723;DHT22;4900;49.306;8.500;2024-02-26T05:48:02;8.90;75.84
9723;DHT22;4900;49.306;8.500;2024-02-26T05:50:28;8.90;75.85
9723;DHT22;4900;49.306;8.500;2024-02-26T05:52:54;8.89;75.84
9723;DHT22;4900;49.306;8.500;2024-02-26T05:55:20;8.89;75.91
9723;DHT22;4900;49.306;8.500;2024-02-26T05:57:45;8.86;76.06
9723;DHT22;4900;49.306;8.500;2024-02-26T06:00:11;8.80;76.42
9723;DHT22;4900;49.306;8.500;2024-02-26T06:02:38;8.82;76.59
9723;DHT22;4900;49.306;8.500;2024-02-26T06:05:04;8.82;76.56
9723;DHT22;4900;49.306;8.500;2024-02-26T06:07:29;8.88;76.46
9723;DHT22;4900;49.306;8.500;2024-02-26T06:09:55;8.83;76.46
9723;DHT22;4900;49.306;8.500;2024-02-26T06:12:20;8.79;76.74
9723;DHT22;4900;49.306;8.500;2024-02-26T06:14:45;8.80;76.82
9723;DHT22;4900;49.306;8.500;2024-02-26T06:17:11;8.83;76.79
9723;DHT22;4900;49.306;8.500;2024-02-26T06:19:36;8.82;76.95
9723;DHT22;4900;49.306;8.500;2024-02-26T06:22:03;8.80;77.24
9723;DHT22;4900;49.306;8.500;2024-02-26T06:24:29;8.83;77.09
9723;DHT22;4900;49.306;8.500;2024-02-26T06:26:54;8.85;77.09
9723;DHT22;4900;49.306;8.500;2024-02-26T06:29:20;8.86;77.04
9723;DHT22;4900;49.306;8.500;2024-02-26T06:31:45;8.85;76.89
9723;DHT22;4900;49.306;8.500;2024-02-26T06:34:10;8.86;76.84
9723;DHT22;4900;49.306;8.500;2024-02-26T06:36:36;8.88;76.91
9723;DHT22;4900;49.306;8.500;2024-02-26T06:39:02;8.90;76.95
9723;DHT22;4900;49.306;8.500;2024-02-26T06:41:27;8.89;77.05
9723;DHT22;4900;49.306;8.500;2024-02-26T06:43:55;8.90;77.14
9723;DHT22;4900;49.306;8.500;2024-02-26T06:46:20;8.90;77.16
9723;DHT22;4900;49.306;8.500;2024-02-26T06:48:47;8.95;77.08
9723;DHT22;4900;49.306;8.500;2024-02-26T06:51:13;8.96;76.96
9723;DHT22;4900;49.306;8.500;2024-02-26T06:53:39;9.01;76.86
9723;DHT22;4900;49.306;8.500;2024-02-26T06:56:04;9.08;76.78
9723;DHT22;4900;49.306;8.500;2024-02-26T06:58:30;9.13;76.64
9723;DHT22;4900;49.306;8.500;2024-02-26T07:00:55;9.20;76.52
9723;DHT22;4900;49.306;8.500;2024-02-26T07:03:21;9.27;76.42
9723;DHT22;4900;49.306;8.500;2024-02-26T07:05:48;9.32;76.26
9723;DHT22;4900;49.306;8.500;2024-02-26T07:08:13;9.38;76.10
9723;DHT22;4900;49.306;8.500;2024-02-26T07:10:40;9.41;75.94
9723;DHT22;4900;49.306;8.500;2024-02-26T07:13:05;9.48;75.83
9723;DHT22;4900;49.306;8.500;2024-02-26T07:15:30;9.49;75.75
9723;DHT22;4900;49.306;8.500;2024-02-26T07:17:57;9.55;75.66
9723;DHT22;4900;49.306;8.500;2024-02-26T07:20:23;9.58;75.62
9723;DHT22;4900;49.306;8.500;2024-02-26T07:22:49;9.66;75.55
9723;DHT22;4900;49.306;8.500;2024-02-26T07:25:15;9.72;75.12
9723;DHT22;4900;49.306;8.500;2024-02-26T07:27:41;9.74;75.20
9723;DHT22;4900;49.306;8.500;2024-02-26T07:30:07;9.82;74.87
9723;DHT22;4900;49.306;8.500;2024-02-26T07:32:34;9.86;74.64
9723;DHT22;4900;49.306;8.500;2024-02-26T07:34:59;9.94;74.52
9723;DHT22;4900;49.306;8.500;2024-02-26T07:37:25;10.00;74.33
9723;DHT22;4900;49.306;8.500;2024-02-26T07:39:50;10.03;74.26
9723;DHT22;4900;49.306;8.500;2024-02-26T07:42:15;10.13;74.23
9723;DHT22;4900;49.306;8.500;2024-02-26T07:44:41;10.18;74.28
9723;DHT22;4900;49.306;8.500;2024-02-26T07:47:09;10.21;74.44
9723;DHT22;4900;49.306;8.500;2024-02-26T07:49:34;10.24;74.48
9723;DHT22;4900;49.306;8.500;2024-02-26T07:52:00;10.32;74.20
9723;DHT22;4900;49.306;8.500;2024-02-26T07:54:25;10.36;74.09
9723;DHT22;4900;49.306;8.500;2024-02-26T07:56:50;10.36;74.27
9723;DHT22;4900;49.306;8.500;2024-02-26T07:59:16;10.35;74.21
9723;DHT22;4900;49.306;8.500;2024-02-26T08:01:42;10.42;74.08
9723;DHT22;4900;49.306;8.500;2024-02-26T08:04:07;10.45;73.80
9723;DHT22;4900;49.306;8.500;2024-02-26T08:06:32;10.48;73.67
9723;DHT22;4900;49.306;8.500;2024-02-26T08:08:58;10.46;73.88
9723;DHT22;4900;49.306;8.500;2024-02-26T08:11:25;10.53;73.78
9723;DHT22;4900;49.306;8.500;2024-02-26T08:13:50;10.59;73.64
9723;DHT22;4900;49.306;8.500;2024-02-26T08:16:17;10.75;73.63
9723;DHT22;4900;49.306;8.500;2024-02-26T08:18:42;10.89;73.30
9723;DHT22;4900;49.306;8.500;2024-02-26T08:21:08;11.03;73.13
9723;DHT22;4900;49.306;8.500;2024-02-26T08:23:33;11.18;72.95
9723;DHT22;4900;49.306;8.500;2024-02-26T08:25:59;11.35;72.59
9723;DHT22;4900;49.306;8.500;2024-02-26T08:28:24;11.46;72.19
9723;DHT22;4900;49.306;8.500;2024-02-26T08:30:50;11.53;71.92
9723;DHT22;4900;49.306;8.500;2024-02-26T08:33:15;11.56;71.73
9723;DHT22;4900;49.306;8.500;2024-02-26T08:35:41;11.60;71.55
9723;DHT22;4900;49.306;8.500;2024-02-26T08:38:06;11.59;71.41
9723;DHT22;4900;49.306;8.500;2024-02-26T08:40:32;11.63;71.34
9723;DHT22;4900;49.306;8.500;2024-02-26T08:42:57;11.65;71.25
9723;DHT22;4900;49.306;8.500;2024-02-26T08:45:23;11.73;70.93
9723;DHT22;4900;49.306;8.500;2024-02-26T08:47:48;11.84;70.79
9723;DHT22;4900;49.306;8.500;2024-02-26T08:50:14;11.97;70.54
9723;DHT22;4900;49.306;8.500;2024-02-26T08:52:39;12.02;70.42
9723;DHT22;4900;49.306;8.500;2024-02-26T08:55:06;12.09;70.20
9723;DHT22;4900;49.306;8.500;2024-02-26T08:57:34;12.20;70.12
9723;DHT22;4900;49.306;8.500;2024-02-26T09:00:00;12.24;70.05
9723;DHT22;4900;49.306;8.500;2024-02-26T09:02:26;12.35;69.93
9723;DHT22;4900;49.306;8.500;2024-02-26T09:04:51;12.48;69.58
9723;DHT22;4900;49.306;8.500;2024-02-26T09:07:19;12.48;69.32
9723;DHT22;4900;49.306;8.500;2024-02-26T09:09:45;12.53;69.17
9723;DHT22;4900;49.306;8.500;2024-02-26T09:12:10;12.57;69.03
9723;DHT22;4900;49.306;8.500;2024-02-26T09:14:36;12.60;68.82
9723;DHT22;4900;49.306;8.500;2024-02-26T09:17:01;12.69;68.62
9723;DHT22;4900;49.306;8.500;2024-02-26T09:19:26;12.70;68.57
9723;DHT22;4900;49.306;8.500;2024-02-26T09:21:55;12.70;68.55
9723;DHT22;4900;49.306;8.500;2024-02-26T09:24:23;12.69;68.56
9723;DHT22;4900;49.306;8.500;2024-02-26T09:26:49;12.81;68.46
9723;DHT22;4900;49.306;8.500;2024-02-26T09:29:14;13.01;68.21
9723;DHT22;4900;49.306;8.500;2024-02-26T09:31:39;13.16;68.14
9723;DHT22;4900;49.306;8.500;2024-02-26T09:34:07;13.32;67.70
9723;DHT22;4900;49.306;8.500;2024-02-26T09:36:33;13.47;67.45
9723;DHT22;4900;49.306;8.500;2024-02-26T09:38:58;13.59;67.07
9723;DHT22;4900;49.306;8.500;2024-02-26T09:41:28;13.63;66.96
9723;DHT22;4900;49.306;8.500;2024-02-26T09:47:00;13.73;66.41
9723;DHT22;4900;49.306;8.500;2024-02-26T09:49:26;13.87;66.24
9723;DHT22;4900;49.306;8.500;2024-02-26T09:51:54;14.01;66.11
9723;DHT22;4900;49.306;8.500;2024-02-26T09:54:21;14.21;65.66
9723;DHT22;4900;49.306;8.500;2024-02-26T09:56:49;14.44;65.14
9723;DHT22;4900;49.306;8.500;2024-02-26T09:59:17;14.64;64.60
9723;DHT22;4900;49.306;8.500;2024-02-26T10:01:44;14.81;64.00
9723;DHT22;4900;49.306;8.500;2024-02-26T10:04:10;14.89;63.50
9723;DHT22;4900;49.306;8.500;2024-02-26T10:06:37;15.01;63.33
9723;DHT22;4900;49.306;8.500;2024-02-26T10:09:03;15.15;62.79
9723;DHT22;4900;49.306;8.500;2024-02-26T10:11:32;15.25;62.72
9723;DHT22;4900;49.306;8.500;2024-02-26T10:13:57;15.35;62.43
9723;DHT22;4900;49.306;8.500;2024-02-26T10:16:27;15.50;62.16
9723;DHT22;4900;49.306;8.500;2024-02-26T10:18:53;15.51;61.74
9723;DHT22;4900;49.306;8.500;2024-02-26T10:21:22;15.68;61.36
9723;DHT22;4900;49.306;8.500;2024-02-26T10:23:49;15.82;61.04
9723;DHT22;4900;49.306;8.500;2024-02-26T10:26:16;15.84;60.92
9723;DHT22;4900;49.306;8.500;2024-02-26T10:28:43;15.84;60.41
9723;DHT22;4900;49.306;8.500;2024-02-26T10:31:10;15.91;60.50
9723;DHT22;4900;49.306;8.500;2024-02-26T10:33:38;16.02;60.26
9723;DHT22;4900;49.306;8.500;2024-02-26T10:36:04;16.06;60.09
9723;DHT22;4900;49.306;8.500;2024-02-26T10:38:32;16.05;59.88
9723;DHT22;4900;49.306;8.500;2024-02-26T10:40:58;15.96;59.73
9723;DHT22;4900;49.306;8.500;2024-02-26T10:43:25;16.08;59.64
9723;DHT22;4900;49.306;8.500;2024-02-26T10:45:51;16.12;59.68
9723;DHT22;4900;49.306;8.500;2024-02-26T10:48:17;16.29;59.37
9723;DHT22;4900;49.306;8.500;2024-02-26T10:50:43;16.36;59.21
9723;DHT22;4900;49.306;8.500;2024-02-26T10:53:20;16.50;59.20
9723;DHT22;4900;49.306;8.500;2024-02-26T10:55:55;16.50;58.84
9723;DHT22;4900;49.306;8.500;2024-02-26T10:58:22;16.71;58.75
9723;DHT22;4900;49.306;8.500;2024-02-26T11:00:50;16.75;58.63
9723;DHT22;4900;49.306;8.500;2024-02-26T11:03:16;16.91;58.50
9723;DHT22;4900;49.306;8.500;2024-02-26T11:05:44;17.04;57.98
9723;DHT22;4900;49.306;8.500;2024-02-26T11:08:11;17.15;57.50
9723;DHT22;4900;49.306;8.500;2024-02-26T11:10:37;17.16;57.46
9723;DHT22;4900;49.306;8.500;2024-02-26T11:13:05;17.32;57.44
9723;DHT22;4900;49.306;8.500;2024-02-26T11:15:32;17.36;57.05
9723;DHT22;4900;49.306;8.500;2024-02-26T11:17:59;17.43;56.94
9723;DHT22;4900;49.306;8.500;2024-02-26T11:20:28;17.43;56.72
9723;DHT22;4900;49.306;8.500;2024-02-26T11:22:54;17.40;56.73
9723;DHT22;4900;49.306;8.500;2024-02-26T11:25:20;17.20;56.94
9723;DHT22;4900;49.306;8.500;2024-02-26T11:27:49;17.19;57.15
9723;DHT22;4900;49.306;8.500;2024-02-26T11:30:16;17.23;57.23
9723;DHT22;4900;49.306;8.500;2024-02-26T11:32:46;17.23;57.06
9723;DHT22;4900;49.306;8.500;2024-02-26T11:35:12;17.33;56.78
9723;DHT22;4900;49.306;8.500;2024-02-26T11:37:41;17.37;56.99
9723;DHT22;4900;49.306;8.500;2024-02-26T11:40:11;17.39;56.85
9723;DHT22;4900;49.306;8.500;2024-02-26T11:42:43;17.54;56.68
9723;DHT22;4900;49.306;8.500;2024-02-26T11:48:03;17.94;56.47
9723;DHT22;4900;49.306;8.500;2024-02-26T11:50:55;18.19;56.69
9723;DHT22;4900;49.306;8.500;2024-02-26T11:53:27;18.44;56.19
9723;DHT22;4900;49.306;8.500;2024-02-26T11:56:12;18.71;56.02
9723;DHT22;4900;49.306;8.500;2024-02-26T11:58:41;18.88;55.28
9723;DHT22;4900;49.306;8.500;2024-02-26T12:04:26;19.20;54.58
9723;DHT22;4900;49.306;8.500;2024-02-26T12:06:53;19.47;54.71
9723;DHT22;4900;49.306;8.500;2024-02-26T12:09:46;19.75;54.62
9723;DHT22;4900;49.306;8.500;2024-02-26T12:12:17;19.83;53.68
9723;DHT22;4900;49.306;8.500;2024-02-26T12:14:55;19.90;53.42
9723;DHT22;4900;49.306;8.500;2024-02-26T12:17:23;20.06;52.81
9723;DHT22;4900;49.306;8.500;2024-02-26T12:19:49;20.20;52.62
9723;DHT22;4900;49.306;8.500;2024-02-26T12:22:15;20.41;52.41
9723;DHT22;4900;49.306;8.500;2024-02-26T12:24:42;20.59;51.95
9723;DHT22;4900;49.306;8.500;2024-02-26T12:27:07;20.85;52.12
9723;DHT22;4900;49.306;8.500;2024-02-26T12:29:33;21.11;51.63
9723;DHT22;4900;49.306;8.500;2024-02-26T12:31:59;21.26;50.73
9723;DHT22;4900;49.306;8.500;2024-02-26T12:34:24;21.23;50.05
9723;DHT22;4900;49.306;8.500;2024-02-26T12:36:50;21.31;50.24
9723;DHT22;4900;49.306;8.500;2024-02-26T12:39:16;21.41;49.74
9723;DHT22;4900;49.306;8.500;2024-02-26T12:41:42;21.64;49.49
9723;DHT22;4900;49.306;8.500;2024-02-26T12:44:15;21.82;49.23
9723;DHT22;4900;49.306;8.500;2024-02-26T12:46:40;21.96;49.07
9723;DHT22;4900;49.306;8.500;2024-02-26T12:49:06;22.20;48.60
9723;DHT22;4900;49.306;8.500;2024-02-26T12:51:33;22.37;48.59
9723;DHT22;4900;49.306;8.500;2024-02-26T12:53:58;22.57;48.37
9723;DHT22;4900;49.306;8.500;2024-02-26T12:56:25;22.76;48.15
9723;DHT22;4900;49.306;8.500;2024-02-26T12:58:52;23.00;48.35
9723;DHT22;4900;49.306;8.500;2024-02-26T13:01:22;23.26;47.74
9723;DHT22;4900;49.306;8.500;2024-02-26T13:03:48;23.45;47.89
9723;DHT22;4900;49.306;8.500;2024-02-26T13:06:14;23.54;46.70
9723;DHT22;4900;49.306;8.500;2024-02-26T13:08:40;23.47;46.66
9723;DHT22;4900;49.306;8.500;2024-02-26T13:11:05;23.35;46.02
9723;DHT22;4900;49.306;8.500;2024-02-26T13:13:31;22.88;46.02
9723;DHT22;4900;49.306;8.500;2024-02-26T13:16:07;22.71;46.14
9723;DHT22;4900;49.306;8.500;2024-02-26T13:18:34;22.50;46.50
9723;DHT22;4900;49.306;8.500;2024-02-26T13:21:12;22.26;46.36
9723;DHT22;4900;49.306;8.500;2024-02-26T13:23:39;22.14;46.71
9723;DHT22;4900;49.306;8.500;2024-02-26T13:26:05;22.03;46.51
9723;DHT22;4900;49.306;8.500;2024-02-26T13:28:31;22.10;46.62
9723;DHT22;4900;49.306;8.500;2024-02-26T13:30:58;22.20;47.04
9723;DHT22;4900;49.306;8.500;2024-02-26T13:33:27;22.37;46.64
9723;DHT22;4900;49.306;8.500;2024-02-26T13:35:53;22.75;46.17
9723;DHT22;4900;49.306;8.500;2024-02-26T13:38:19;23.17;46.58
9723;DHT22;4900;49.306;8.500;2024-02-26T13:40:45;23.43;45.27
9723;DHT22;4900;49.306;8.500;2024-02-26T13:43:10;23.68;45.17
9723;DHT22;4900;49.306;8.500;2024-02-26T13:45:37;23.93;45.55
9723;DHT22;4900;49.306;8.500;2024-02-26T13:48:05;24.10;44.51
9723;DHT22;4900;49.306;8.500;2024-02-26T13:50:31;24.09;44.76
9723;DHT22;4900;49.306;8.500;2024-02-26T13:52:56;24.02;43.35
9723;DHT22;4900;49.306;8.500;2024-02-26T13:55:23;23.89;43.54
9723;DHT22;4900;49.306;8.500;2024-02-26T13:57:52;23.79;42.80
9723;DHT22;4900;49.306;8.500;2024-02-26T14:00:19;23.65;42.58
9723;DHT22;4900;49.306;8.500;2024-02-26T14:02:44;23.45;42.80
9723;DHT22;4900;49.306;8.500;2024-02-26T14:05:10;23.16;43.34
9723;DHT22;4900;49.306;8.500;2024-02-26T14:07:37;22.95;43.56
9723;DHT22;4900;49.306;8.500;2024-02-26T14:10:03;22.73;43.72
9723;DHT22;4900;49.306;8.500;2024-02-26T14:12:28;22.58;43.96
9723;DHT22;4900;49.306;8.500;2024-02-26T14:14:54;22.51;44.84
9723;DHT22;4900;49.306;8.500;2024-02-26T14:17:21;22.53;44.98
9723;DHT22;4900;49.306;8.500;2024-02-26T14:19:47;22.54;44.96
9723;DHT22;4900;49.306;8.500;2024-02-26T14:22:14;22.68;45.29
9723;DHT22;4900;49.306;8.500;2024-02-26T14:24:42;22.73;44.27
9723;DHT22;4900;49.306;8.500;2024-02-26T14:27:10;22.82;44.59
9723;DHT22;4900;49.306;8.500;2024-02-26T14:29:35;22.85;43.72
9723;DHT22;4900;49.306;8.500;2024-02-26T14:32:03;22.92;44.25
9723;DHT22;4900;49.306;8.500;2024-02-26T14:34:28;23.03;44.42
9723;DHT22;4900;49.306;8.500;2024-02-26T14:36:54;23.28;44.78
9723;DHT22;4900;49.306;8.500;2024-02-26T14:39:19;23.57;45.29
9723;DHT22;4900;49.306;8.500;2024-02-26T14:41:45;23.77;44.53
9723;DHT22;4900;49.306;8.500;2024-02-26T14:44:11;24.02;44.31
9723;DHT22;4900;49.306;8.500;2024-02-26T14:46:38;24.24;43.90
9723;DHT22;4900;49.306;8.500;2024-02-26T14:49:03;24.36;43.11
9723;DHT22;4900;49.306;8.500;2024-02-26T14:51:29;24.44;41.96
9723;DHT22;4900;49.306;8.500;2024-02-26T14:53:54;24.47;42.66
9723;DHT22;4900;49.306;8.500;2024-02-26T14:56:20;24.43;41.63
9723;DHT22;4900;49.306;8.500;2024-02-26T14:58:45;24.18;42.13
9723;DHT22;4900;49.306;8.500;2024-02-26T15:01:11;24.05;41.28
9723;DHT22;4900;49.306;8.500;2024-02-26T15:03:37;23.99;41.72
9723;DHT22;4900;49.306;8.500;2024-02-26T15:06:03;23.99;41.78
9723;DHT22;4900;49.306;8.500;2024-02-26T15:08:28;23.92;42.05
9723;DHT22;4900;49.306;8.500;2024-02-26T15:10:54;23.84;41.52
9723;DHT22;4900;49.306;8.500;2024-02-26T15:13:20;23.66;41.30
9723;DHT22;4900;49.306;8.500;2024-02-26T15:15:46;23.43;41.05
9723;DHT22;4900;49.306;8.500;2024-02-26T15:18:11;23.23;41.64
9723;DHT22;4900;49.306;8.500;2024-02-26T15:20:41;23.02;42.33
9723;DHT22;4900;49.306;8.500;2024-02-26T15:23:07;22.88;42.35
9723;DHT22;4900;49.306;8.500;2024-02-26T15:25:33;22.72;42.44
9723;DHT22;4900;49.306;8.500;2024-02-26T15:27:58;22.58;42.25
9723;DHT22;4900;49.306;8.500;2024-02-26T15:30:24;22.37;42.69
9723;DHT22;4900;49.306;8.500;2024-02-26T15:32:50;22.12;42.72
9723;DHT22;4900;49.306;8.500;2024-02-26T15:35:15;21.88;43.28
9723;DHT22;4900;49.306;8.500;2024-02-26T15:37:41;21.68;43.68
9723;DHT22;4900;49.306;8.500;2024-02-26T15:40:07;21.48;44.15
9723;DHT22;4900;49.306;8.500;2024-02-26T15:42:33;21.33;44.74
9723;DHT22;4900;49.306;8.500;2024-02-26T15:44:58;21.29;45.03
9723;DHT22;4900;49.306;8.500;2024-02-26T15:47:24;21.26;46.31
9723;DHT22;4900;49.306;8.500;2024-02-26T15:49:49;21.44;46.88
9723;DHT22;4900;49.306;8.500;2024-02-26T15:52:15;21.75;47.44
9723;DHT22;4900;49.306;8.500;2024-02-26T15:54:40;22.08;46.25
9723;DHT22;4900;49.306;8.500;2024-02-26T15:57:07;22.28;44.89
9723;DHT22;4900;49.306;8.500;2024-02-26T15:59:35;22.41;43.87
9723;DHT22;4900;49.306;8.500;2024-02-26T16:02:00;22.33;43.02
9723;DHT22;4900;49.306;8.500;2024-02-26T16:04:26;22.14;42.75
9723;DHT22;4900;49.306;8.500;2024-02-26T16:06:54;21.85;42.81
9723;DHT22;4900;49.306;8.500;2024-02-26T16:09:20;21.65;43.51
9723;DHT22;4900;49.306;8.500;2024-02-26T16:11:46;21.50;43.84
9723;DHT22;4900;49.306;8.500;2024-02-26T16:14:38;21.24;44.18